sensor_id;sensor_type;location;lat;lon;timestamp;temperature;humidity
8896;DHT22;4484;48.928;10.066;2023-05-07T00:00:36;10.70;99.90
8896;DHT22;4484;48.928;10.066;2023-05-07T00:03:03;10.70;99.90
8896;DHT22;4484;48.928;10.066;2023-05-07T00:05:30;10.70;99.90
8896;DHT22;4484;48.928;10.066;2023-05-07T00:07:57;10.70;99.90
8896;DHT22;4484;48.928;10.066;2023-05-07T00:10:25;10.70;99.90
8896;DHT22;4484;48.928;10.066;2023-05-07T00:12:52;10.70;99.90
8896;DHT22;4484;48.928;10.066;2023-05-07T00:15:19;10.70;99.90
8896;DHT22;4484;48.928;10.066;2023-05-07T00:17:46;10.70;99.90
8896;DHT22;4484;48.928;10.066;2023-05-07T00:20:13;10.80;99.90
8896;DHT22;4484;48.928;10.066;2023-05-07T00:22:40;10.80;99.90
8896;DHT22;4484;48.928;10.066;2023-05-07T00:25:07;10.80;99.90
8896;DHT22;4484;48.928;10.066;2023-05-07T00:27:34;10.90;99.90
8896;DHT22;4484;48.928;10.066;2023-05-07T00:30:01;10.90;99.90
8896;DHT22;4484;48.928;10.066;2023-05-07T00:32:28;10.90;99.90
8896;DHT22;4484;48.928;10.066;2023-05-07T00:34:54;10.90;99.90
8896;DHT22;4484;48.928;10.066;2023-05-07T00:37:22;11.00;99.90
8896;DHT22;4484;48.928;10.066;2023-05-07T00:39:49;11.00;99.90
8896;DHT22;4484;48.928;10.066;2023-05-07T00:42:17;10.90;99.90
8896;DHT22;4484;48.928;10.066;2023-05-07T00:44:44;11.00;99.90
8896;DHT22;4484;48.928;10.066;2023-05-07T00:47:12;11.00;99.90
8896;DHT22;4484;48.928;10.066;2023-05-07T00:49:42;11.00;99.90
8896;DHT22;4484;48.928;10.066;2023-05-07T00:52:11;11.00;99.90
8896;DHT22;4484;48.928;10.066;2023-05-07T00:54:41;10.90;99.90
8896;DHT22;4484;48.928;10.066;2023-05-07T00:57:09;10.90;99.90
8896;DHT22;4484;48.928;10.066;2023-05-07T00:59:36;10.90;99.90
8896;DHT22;4484;48.928;10.066;2023-05-07T01:02:04;10.90;99.90
8896;DHT22;4484;48.928;10.066;2023-05-07T01:04:31;10.90;99.90
8896;DHT22;4484;48.928;10.066;2023-05-07T01:06:59;10.80;99.90
8896;DHT22;4484;48.928;10.066;2023-05-07T01:09:28;10.80;99.90
8896;DHT22;4484;48.928;10.066;2023-05-07T01:11:56;10.80;99.90
8896;DHT22;4484;48.928;10.066;2023-05-07T01:14:24;10.70;99.90
8896;DHT22;4484;48.928;10.066;2023-05-07T01:16:52;10.70;99.90
8896;DHT22;4484;48.928;10.066;2023-05-07T01:19:22;10.70;99.90
8896;DHT22;4484;48.928;10.066;2023-05-07T01:21:49;10.70;99.90
8896;DHT22;4484;48.928;10.066;2023-05-07T01:24:19;10.60;99.90
8896;DHT22;4484;48.928;10.066;2023-05-07T01:26:47;10.60;99.90
8896;DHT22;4484;48.928;10.066;2023-05-07T01:29:16;10.60;99.90
8896;DHT22;4484;48.928;10.066;2023-05-07T01:31:44;10.60;99.90
8896;DHT22;4484;48.928;10.066;2023-05-07T01:34:12;10.60;99.90
8896;DHT22;4484;48.928;10.066;2023-05-07T01:36:40;10.50;99.90
8896;DHT22;4484;48.928;10.066;2023-05-07T01:39:09;10.50;99.90
8896;DHT22;4484;48.928;10.066;2023-05-07T01:41:36;10.50;99.90
8896;DHT22;4484;48.928;10.066;2023-05-07T01:44:03;10.50;99.90
8896;DHT22;4484;48.928;10.066;2023-05-07T01:46:32;10.50;99.90
8896;DHT22;4484;48.928;10.066;2023-05-07T01:48:59;10.40;99.90
8896;DHT22;4484;48.928;10.066;2023-05-07T01:51:26;10.40;99.90
8896;DHT22;4484;48.928;10.066;2023-05-07T01:53:54;10.40;99.90
8896;DHT22;4484;48.928;10.066;2023-05-07T01:56:22;10.40;99.90
8896;DHT22;4484;48.928;10.066;2023-05-07T01:58:49;10.40;99.90
8896;DHT22;4484;48.928;10.066;2023-05-07T02:01:17;10.40;99.90
8896;DHT22;4484;48.928;10.066;2023-05-07T02:03:44;10.40;99.90
8896;DHT22;4484;48.928;10.066;2023-05-07T02:06:19;10.40;99.90
8896;DHT22;4484;48.928;10.066;2023-05-07T02:08:47;10.50;99.90
8896;DHT22;4484;48.928;10.066;2023-05-07T02:11:15;10.50;99.90
8896;DHT22;4484;48.928;10.066;2023-05-07T02:13:42;10.50;99.90
8896;DHT22;4484;48.928;10.066;2023-05-07T02:16:09;10.50;99.90
8896;DHT22;4484;48.928;10.066;2023-05-07T02:18:38;10.40;99.90
8896;DHT22;4484;48.928;10.066;2023-05-07T02:21:04;10.40;99.90
8896;DHT22;4484;48.928;10.066;2023-05-07T02:23:31;10.40;99.90
8896;DHT22;4484;48.928;10.066;2023-05-07T02:25:59;10.40;99.90
8896;DHT22;4484;48.928;10.066;2023-05-07T02:28:25;10.30;99.90
8896;DHT22;4484;48.928;10.066;2023-05-07T02:30:59;10.30;99.90
8896;DHT22;4484;48.928;10.066;2023-05-07T02:33:28;10.30;99.90
8896;DHT22;4484;48.928;10.066;2023-05-07T02:35:55;10.30;99.90
8896;DHT22;4484;48.928;10.066;2023-05-07T02:38:22;10.30;99.90
8896;DHT22;4484;48.928;10.066;2023-05-07T02:40:50;10.30;99.90
8896;DHT22;4484;48.928;10.066;2023-05-07T02:43:17;10.30;99.90
8896;DHT22;4484;48.928;10.066;2023-05-07T02:45:46;10.30;99.90
8896;DHT22;4484;48.928;10.066;2023-05-07T02:48:14;10.30;99.90
8896;DHT22;4484;48.928;10.066;2023-05-07T02:50:41;10.20;99.90
8896;DHT22;4484;48.928;10.066;2023-05-07T02:53:09;10.10;99.90
8896;DHT22;4484;48.928;10.066;2023-05-07T02:55:36;10.10;99.90
8896;DHT22;4484;48.928;10.066;2023-05-07T02:58:03;10.00;99.90
8896;DHT22;4484;48.928;10.066;2023-05-07T03:00:32;9.90;99.90
8896;DHT22;4484;48.928;10.066;2023-05-07T03:03:20;9.90;99.90
8896;DHT22;4484;48.928;10.066;2023-05-07T03:05:46;9.80;99.90
8896;DHT22;4484;48.928;10.066;2023-05-07T03:08:13;9.80;99.90
8896;DHT22;4484;48.928;10.066;2023-05-07T03:10:40;9.80;99.90
8896;DHT22;4484;48.928;10.066;2023-05-07T03:13:07;9.70;99.90
8896;DHT22;4484;48.928;10.066;2023-05-07T03:15:34;9.70;99.90
8896;DHT22;4484;48.928;10.066;2023-05-07T03:18:01;9.70;99.90
8896;DHT22;4484;48.928;10.066;2023-05-07T03:20:28;9.70;99.90
8896;DHT22;4484;48.928;10.066;2023-05-07T03:22:55;9.60;99.90
8896;DHT22;4484;48.928;10.066;2023-05-07T03:25:22;9.60;99.90
8896;DHT22;4484;48.928;10.066;2023-05-07T03:27:49;9.60;99.90
8896;DHT22;4484;48.928;10.066;2023-05-07T03:30:19;9.60;99.90
8896;DHT22;4484;48.928;10.066;2023-05-07T03:32:46;9.50;99.90
8896;DHT22;4484;48.928;10.066;2023-05-07T03:35:13;9.50;99.90
8896;DHT22;4484;48.928;10.066;2023-05-07T03:37:41;9.50;99.90
8896;DHT22;4484;48.928;10.066;2023-05-07T03:40:09;9.40;99.90
8896;DHT22;4484;48.928;10.066;2023-05-07T03:42:44;9.40;99.90
8896;DHT22;4484;48.928;10.066;2023-05-07T03:45:12;9.50;99.90
8896;DHT22;4484;48.928;10.066;2023-05-07T03:47:44;9.50;99.90
8896;DHT22;4484;48.928;10.066;2023-05-07T03:50:15;9.50;99.90
8896;DHT22;4484;48.928;10.066;2023-05-07T03:52:42;9.40;99.90
8896;DHT22;4484;48.928;10.066;2023-05-07T03:55:09;9.40;99.90
8896;DHT22;4484;48.928;10.066;2023-05-07T03:57:38;9.50;99.90
8896;DHT22;4484;48.928;10.066;2023-05-07T04:00:06;9.50;99.90
8896;DHT22;4484;48.928;10.066;2023-05-07T04:02:46;9.50;99.90
8896;DHT22;4484;48.928;10.066;2023-05-07T04:05:15;9.40;99.90
8896;DHT22;4484;48.928;10.066;2023-05-07T04:07:45;9.40;99.90
8896;DHT22;4484;48.928;10.066;2023-05-07T04:10:16;9.40;99.90
8896;DHT22;4484;48.928;10.066;2023-05-07T04:12:45;9.50;99.90
8896;DHT22;4484;48.928;10.066;2023-05-07T04:15:17;9.50;99.90
8896;DHT22;4484;48.928;10.066;2023-05-07T04:17:44;9.50;99.90
8896;DHT22;4484;48.928;10.066;2023-05-07T04:20:15;9.50;99.90
8896;DHT22;4484;48.928;10.066;2023-05-07T04:22:45;9.60;99.90
8896;DHT22;4484;48.928;10.066;2023-05-07T04:25:11;9.60;99.90
8896;DHT22;4484;48.928;10.066;2023-05-07T04:27:38;9.70;99.90
8896;DHT22;4484;48.928;10.066;2023-05-07T04:30:06;9.70;99.90
8896;DHT22;4484;48.928;10.066;2023-05-07T04:32:36;9.80;99.90
8896;DHT22;4484;48.928;10.066;2023-05-07T04:35:04;9.90;99.90
8896;DHT22;4484;48.928;10.066;2023-05-07T04:37:34;9.90;99.90
8896;DHT22;4484;48.928;10.066;2023-05-07T04:40:02;10.00;99.90
8896;DHT22;4484;48.928;10.066;2023-05-07T04:42:29;10.00;99.90
8896;DHT22;4484;48.928;10.066;2023-05-07T04:44:56;10.00;99.90
8896;DHT22;4484;48.928;10.066;2023-05-07T04:47:24;10.10;99.90
8896;DHT22;4484;48.928;10.066;2023-05-07T04:49:51;10.10;99.90
8896;DHT22;4484;48.928;10.066;2023-05-07T04:52:17;10.10;99.90
8896;DHT22;4484;48.928;10.066;2023-05-07T04:54:44;10.20;99.90
8896;DHT22;4484;48.928;10.066;2023-05-07T04:57:11;10.20;99.90
8896;DHT22;4484;48.928;10.066;2023-05-07T04:59:38;10.20;99.90
8896;DHT22;4484;48.928;10.066;2023-05-07T05:02:05;10.30;99.90
8896;DHT22;4484;48.928;10.066;2023-05-07T05:04:33;10.40;99.90
8896;DHT22;4484;48.928;10.066;2023-05-07T05:06:59;10.50;99.90
8896;DHT22;4484;48.928;10.066;2023-05-07T05:09:27;10.60;99.90
8896;DHT22;4484;48.928;10.066;2023-05-07T05:11:54;10.70;99.90
8896;DHT22;4484;48.928;10.066;2023-05-07T05:14:21;10.90;99.90
8896;DHT22;4484;48.928;10.066;2023-05-07T05:16:49;11.00;99.90
8896;DHT22;4484;48.928;10.066;2023-05-07T05:19:17;11.20;99.90
8896;DHT22;4484;48.928;10.066;2023-05-07T05:21:44;11.40;99.90
8896;DHT22;4484;48.928;10.066;2023-05-07T05:24:12;11.50;99.90
8896;DHT22;4484;48.928;10.066;2023-05-07T05:26:39;11.70;99.90
8896;DHT22;4484;48.928;10.066;2023-05-07T05:29:06;11.90;99.90
8896;DHT22;4484;48.928;10.066;2023-05-07T05:31:35;12.00;99.90
8896;DHT22;4484;48.928;10.066;2023-05-07T05:34:03;12.20;99.90
8896;DHT22;4484;48.928;10.066;2023-05-07T05:36:30;12.30;99.90
8896;DHT22;4484;48.928;10.066;2023-05-07T05:38:58;12.50;99.90
8896;DHT22;4484;48.928;10.066;2023-05-07T05:41:24;12.60;99.90
8896;DHT22;4484;48.928;10.066;2023-05-07T05:43:52;12.70;99.90
8896;DHT22;4484;48.928;10.066;2023-05-07T05:46:19;12.90;99.90
8896;DHT22;4484;48.928;10.066;2023-05-07T05:48:48;13.00;99.90
8896;DHT22;4484;48.928;10.066;2023-05-07T05:51:15;13.10;99.90
8896;DHT22;4484;48.928;10.066;2023-05-07T05:53:42;13.10;99.90
8896;DHT22;4484;48.928;10.066;2023-05-07T05:56:09;13.20;99.90
8896;DHT22;4484;48.928;10.066;2023-05-07T05:58:37;13.20;99.90
8896;DHT22;4484;48.928;10.066;2023-05-07T06:01:06;13.10;99.90
8896;DHT22;4484;48.928;10.066;2023-05-07T06:03:35;13.10;99.90
8896;DHT22;4484;48.928;10.066;2023-05-07T06:06:08;13.10;99.90
8896;DHT22;4484;48.928;10.066;2023-05-07T06:08:35;13.00;99.90
8896;DHT22;4484;48.928;10.066;2023-05-07T06:11:02;13.10;99.90
8896;DHT22;4484;48.928;10.066;2023-05-07T06:13:33;13.20;99.90
8896;DHT22;4484;48.928;10.066;2023-05-07T06:16:00;13.40;99.90
8896;DHT22;4484;48.928;10.066;2023-05-07T06:18:27;13.60;99.90
8896;DHT22;4484;48.928;10.066;2023-05-07T06:20:54;13.90;99.90
8896;DHT22;4484;48.928;10.066;2023-05-07T06:23:25;14.20;99.90
8896;DHT22;4484;48.928;10.066;2023-05-07T06:25:52;14.60;99.90
8896;DHT22;4484;48.928;10.066;2023-05-07T06:28:23;14.90;99.90
8896;DHT22;4484;48.928;10.066;2023-05-07T06:30:51;15.30;99.90
8896;DHT22;4484;48.928;10.066;2023-05-07T06:33:17;15.60;99.90
8896;DHT22;4484;48.928;10.066;2023-05-07T06:35:46;15.90;99.90
8896;DHT22;4484;48.928;10.066;2023-05-07T06:38:13;16.20;99.90
8896;DHT22;4484;48.928;10.066;2023-05-07T06:40:41;16.40;99.90
8896;DHT22;4484;48.928;10.066;2023-05-07T06:43:07;16.80;99.90
8896;DHT22;4484;48.928;10.066;2023-05-07T06:45:47;17.10;99.90
8896;DHT22;4484;48.928;10.066;2023-05-07T06:48:14;17.60;99.90
8896;DHT22;4484;48.928;10.066;2023-05-07T06:50:50;18.20;99.90
8896;DHT22;4484;48.928;10.066;2023-05-07T06:53:18;18.70;99.90
8896;DHT22;4484;48.928;10.066;2023-05-07T06:55:45;19.00;99.90
8896;DHT22;4484;48.928;10.066;2023-05-07T06:58:13;19.10;99.90
8896;DHT22;4484;48.928;10.066;2023-05-07T07:00:40;18.90;99.90
8896;DHT22;4484;48.928;10.066;2023-05-07T07:03:07;18.70;99.90
8896;DHT22;4484;48.928;10.066;2023-05-07T07:05:34;18.60;99.90
8896;DHT22;4484;48.928;10.066;2023-05-07T07:08:03;18.30;99.90
8896;DHT22;4484;48.928;10.066;2023-05-07T07:10:29;18.30;99.90
8896;DHT22;4484;48.928;10.066;2023-05-07T07:12:56;18.40;99.90
8896;DHT22;4484;48.928;10.066;2023-05-07T07:15:24;18.60;99.90
8896;DHT22;4484;48.928;10.066;2023-05-07T07:17:53;18.90;99.90
8896;DHT22;4484;48.928;10.066;2023-05-07T07:20:21;19.10;99.90
8896;DHT22;4484;48.928;10.066;2023-05-07T07:22:48;19.30;99.90
8896;DHT22;4484;48.928;10.066;2023-05-07T07:25:16;19.50;99.90
8896;DHT22;4484;48.928;10.066;2023-05-07T07:27:43;20.00;99.90
8896;DHT22;4484;48.928;10.066;2023-05-07T07:30:11;20.50;99.90
8896;DHT22;4484;48.928;10.066;2023-05-07T07:32:40;20.80;99.90
8896;DHT22;4484;48.928;10.066;2023-05-07T07:35:08;21.00;99.90
8896;DHT22;4484;48.928;10.066;2023-05-07T07:37:35;21.00;99.90
8896;DHT22;4484;48.928;10.066;2023-05-07T07:40:02;21.00;99.90
8896;DHT22;4484;48.928;10.066;2023-05-07T07:42:32;20.80;99.90
8896;DHT22;4484;48.928;10.066;2023-05-07T07:44:59;20.60;99.90
8896;DHT22;4484;48.928;10.066;2023-05-07T07:47:30;20.50;99.90
8896;DHT22;4484;48.928;10.066;2023-05-07T07:49:57;20.50;99.90
8896;DHT22;4484;48.928;10.066;2023-05-07T07:52:24;20.60;99.90
8896;DHT22;4484;48.928;10.066;2023-05-07T07:54:51;20.90;99.90
8896;DHT22;4484;48.928;10.066;2023-05-07T07:57:18;21.20;99.90
8896;DHT22;4484;48.928;10.066;2023-05-07T07:59:46;21.50;99.90
8896;DHT22;4484;48.928;10.066;2023-05-07T08:02:14;21.90;99.90
8896;DHT22;4484;48.928;10.066;2023-05-07T08:04:41;22.70;99.90
8896;DHT22;4484;48.928;10.066;2023-05-07T08:07:10;23.40;99.90
8896;DHT22;4484;48.928;10.066;2023-05-07T08:09:40;23.80;99.90
8896;DHT22;4484;48.928;10.066;2023-05-07T08:12:08;24.10;99.90
8896;DHT22;4484;48.928;10.066;2023-05-07T08:14:37;24.30;99.90
8896;DHT22;4484;48.928;10.066;2023-05-07T08:17:05;24.80;99.90
8896;DHT22;4484;48.928;10.066;2023-05-07T08:19:33;25.20;99.90
8896;DHT22;4484;48.928;10.066;2023-05-07T08:22:02;25.70;99.90
8896;DHT22;4484;48.928;10.066;2023-05-07T08:24:29;25.70;97.80
8896;DHT22;4484;48.928;10.066;2023-05-07T08:26:56;25.60;98.10
8896;DHT22;4484;48.928;10.066;2023-05-07T08:29:23;25.20;97.20
8896;DHT22;4484;48.928;10.066;2023-05-07T08:31:51;24.60;96.20
8896;DHT22;4484;48.928;10.066;2023-05-07T08:34:18;24.00;97.50
8896;DHT22;4484;48.928;10.066;2023-05-07T08:36:46;23.80;99.90
8896;DHT22;4484;48.928;10.066;2023-05-07T08:39:17;23.50;97.80
8896;DHT22;4484;48.928;10.066;2023-05-07T08:41:48;23.40;99.20
8896;DHT22;4484;48.928;10.066;2023-05-07T08:44:16;23.80;99.90
8896;DHT22;4484;48.928;10.066;2023-05-07T08:46:46;24.40;99.90
8896;DHT22;4484;48.928;10.066;2023-05-07T08:49:16;25.10;99.90
8896;DHT22;4484;48.928;10.066;2023-05-07T08:51:43;25.70;99.90
8896;DHT22;4484;48.928;10.066;2023-05-07T08:54:15;26.10;99.20
8896;DHT22;4484;48.928;10.066;2023-05-07T08:56:43;26.20;95.40
8896;DHT22;4484;48.928;10.066;2023-05-07T08:59:10;26.20;97.10
8896;DHT22;4484;48.928;10.066;2023-05-07T09:01:37;26.20;96.40
8896;DHT22;4484;48.928;10.066;2023-05-07T09:04:05;26.20;96.40
8896;DHT22;4484;48.928;10.066;2023-05-07T09:06:34;26.10;94.60
8896;DHT22;4484;48.928;10.066;2023-05-07T09:09:01;25.80;95.40
8896;DHT22;4484;48.928;10.066;2023-05-07T09:11:30;25.70;94.30
8896;DHT22;4484;48.928;10.066;2023-05-07T09:13:59;25.70;98.00
8896;DHT22;4484;48.928;10.066;2023-05-07T09:16:32;25.90;99.20
8896;DHT22;4484;48.928;10.066;2023-05-07T09:19:00;25.70;95.70
8896;DHT22;4484;48.928;10.066;2023-05-07T09:21:27;25.70;95.20
8896;DHT22;4484;48.928;10.066;2023-05-07T09:23:57;25.50;93.10
8896;DHT22;4484;48.928;10.066;2023-05-07T09:26:32;25.50;94.10
8896;DHT22;4484;48.928;10.066;2023-05-07T09:29:01;25.90;95.10
8896;DHT22;4484;48.928;10.066;2023-05-07T09:31:28;26.20;90.90
8896;DHT22;4484;48.928;10.066;2023-05-07T09:33:55;26.00;90.10
8896;DHT22;4484;48.928;10.066;2023-05-07T09:36:27;25.90;90.20
8896;DHT22;4484;48.928;10.066;2023-05-07T09:38:53;26.30;91.30
8896;DHT22;4484;48.928;10.066;2023-05-07T09:41:20;26.30;86.90
8896;DHT22;4484;48.928;10.066;2023-05-07T09:43:58;26.40;85.70
8896;DHT22;4484;48.928;10.066;2023-05-07T09:46:34;26.20;80.80
8896;DHT22;4484;48.928;10.066;2023-05-07T09:49:09;26.20;80.50
8896;DHT22;4484;48.928;10.066;2023-05-07T09:51:51;26.00;74.20
8896;DHT22;4484;48.928;10.066;2023-05-07T09:54:22;26.00;74.90
8896;DHT22;4484;48.928;10.066;2023-05-07T09:56:52;25.80;77.50
8896;DHT22;4484;48.928;10.066;2023-05-07T09:59:22;26.00;81.30
8896;DHT22;4484;48.928;10.066;2023-05-07T10:01:52;26.00;82.10
8896;DHT22;4484;48.928;10.066;2023-05-07T10:04:24;26.50;85.10
8896;DHT22;4484;48.928;10.066;2023-05-07T10:06:52;26.60;78.00
8896;DHT22;4484;48.928;10.066;2023-05-07T10:09:21;26.50;75.30
8896;DHT22;4484;48.928;10.066;2023-05-07T10:11:51;26.30;78.20
8896;DHT22;4484;48.928;10.066;2023-05-07T10:14:21;26.30;81.30
8896;DHT22;4484;48.928;10.066;2023-05-07T10:16:49;26.70;78.20
8896;DHT22;4484;48.928;10.066;2023-05-07T10:19:17;26.80;81.80
8896;DHT22;4484;48.928;10.066;2023-05-07T10:22:01;26.80;80.20
8896;DHT22;4484;48.928;10.066;2023-05-07T10:24:36;27.20;81.30
8896;DHT22;4484;48.928;10.066;2023-05-07T10:27:12;27.10;74.30
8896;DHT22;4484;48.928;10.066;2023-05-07T10:29:52;27.10;76.40
8896;DHT22;4484;48.928;10.066;2023-05-07T10:32:43;27.10;74.30
8896;DHT22;4484;48.928;10.066;2023-05-07T10:35:21;27.20;74.60
8896;DHT22;4484;48.928;10.066;2023-05-07T10:37:49;27.30;74.00
8896;DHT22;4484;48.928;10.066;2023-05-07T10:40:20;27.40;80.80
8896;DHT22;4484;48.928;10.066;2023-05-07T10:42:59;27.50;80.20
8896;DHT22;4484;48.928;10.066;2023-05-07T10:45:31;27.90;75.80
8896;DHT22;4484;48.928;10.066;2023-05-07T10:51:18;27.70;72.10
8896;DHT22;4484;48.928;10.066;2023-05-07T10:53:47;27.40;76.30
8896;DHT22;4484;48.928;10.066;2023-05-07T10:58:55;27.60;70.60
8896;DHT22;4484;48.928;10.066;2023-05-07T11:04:18;27.60;73.00
8896;DHT22;4484;48.928;10.066;2023-05-07T11:07:27;27.80;76.40
8896;DHT22;4484;48.928;10.066;2023-05-07T11:10:12;28.20;72.50
8896;DHT22;4484;48.928;10.066;2023-05-07T11:12:58;27.80;70.90
8896;DHT22;4484;48.928;10.066;2023-05-07T11:15:48;27.90;70.30
8896;DHT22;4484;48.928;10.066;2023-05-07T11:19:02;27.90;70.60
8896;DHT22;4484;48.928;10.066;2023-05-07T11:21:40;27.30;70.70
8896;DHT22;4484;48.928;10.066;2023-05-07T11:24:39;27.30;77.40
8896;DHT22;4484;48.928;10.066;2023-05-07T11:27:07;27.20;71.60
8896;DHT22;4484;48.928;10.066;2023-05-07T11:29:35;27.50;75.10
8896;DHT22;4484;48.928;10.066;2023-05-07T11:32:06;27.70;71.40
8896;DHT22;4484;48.928;10.066;2023-05-07T11:34:41;27.80;72.00
8896;DHT22;4484;48.928;10.066;2023-05-07T11:37:08;27.70;72.10
8896;DHT22;4484;48.928;10.066;2023-05-07T11:39:49;27.80;77.10
8896;DHT22;4484;48.928;10.066;2023-05-07T11:44:53;27.60;67.60
8896;DHT22;4484;48.928;10.066;2023-05-07T11:47:20;27.00;68.90
8896;DHT22;4484;48.928;10.066;2023-05-07T11:49:57;26.60;70.20
8896;DHT22;4484;48.928;10.066;2023-05-07T11:52:28;26.50;71.80
8896;DHT22;4484;48.928;10.066;2023-05-07T11:54:56;26.80;70.80
8896;DHT22;4484;48.928;10.066;2023-05-07T11:57:25;27.10;77.90
8896;DHT22;4484;48.928;10.066;2023-05-07T12:00:00;27.30;77.70
8896;DHT22;4484;48.928;10.066;2023-05-07T12:02:38;27.70;72.30
8896;DHT22;4484;48.928;10.066;2023-05-07T12:05:05;27.60;71.30
8896;DHT22;4484;48.928;10.066;2023-05-07T12:07:34;27.50;72.80
8896;DHT22;4484;48.928;10.066;2023-05-07T12:10:05;27.70;77.60
8896;DHT22;4484;48.928;10.066;2023-05-07T12:12:46;27.10;70.60
8896;DHT22;4484;48.928;10.066;2023-05-07T12:15:16;27.10;76.60
8896;DHT22;4484;48.928;10.066;2023-05-07T12:17:44;27.40;73.60
8896;DHT22;4484;48.928;10.066;2023-05-07T12:20:11;27.20;72.20
8896;DHT22;4484;48.928;10.066;2023-05-07T12:22:38;27.40;78.30
8896;DHT22;4484;48.928;10.066;2023-05-07T12:25:05;27.50;72.10
8896;DHT22;4484;48.928;10.066;2023-05-07T12:27:37;27.90;78.40
8896;DHT22;4484;48.928;10.066;2023-05-07T12:30:04;28.20;74.10
8896;DHT22;4484;48.928;10.066;2023-05-07T12:32:31;28.50;75.10
8896;DHT22;4484;48.928;10.066;2023-05-07T12:35:03;28.60;73.60
8896;DHT22;4484;48.928;10.066;2023-05-07T12:37:32;28.30;68.30
8896;DHT22;4484;48.928;10.066;2023-05-07T12:40:07;27.90;68.80
8896;DHT22;4484;48.928;10.066;2023-05-07T12:42:39;27.20;70.70
8896;DHT22;4484;48.928;10.066;2023-05-07T12:45:14;27.20;75.90
8896;DHT22;4484;48.928;10.066;2023-05-07T12:47:47;27.70;79.90
8896;DHT22;4484;48.928;10.066;2023-05-07T12:50:15;27.80;66.90
8896;DHT22;4484;48.928;10.066;2023-05-07T12:52:43;27.50;66.20
8896;DHT22;4484;48.928;10.066;2023-05-07T12:55:14;27.50;75.80
8896;DHT22;4484;48.928;10.066;2023-05-07T12:57:45;27.60;66.40
8896;DHT22;4484;48.928;10.066;2023-05-07T13:00:14;27.30;71.10
8896;DHT22;4484;48.928;10.066;2023-05-07T13:02:42;27.20;68.70
8896;DHT22;4484;48.928;10.066;2023-05-07T13:05:11;27.10;69.50
8896;DHT22;4484;48.928;10.066;2023-05-07T13:07:39;26.90;73.80
8896;DHT22;4484;48.928;10.066;2023-05-07T13:10:07;26.90;68.90
8896;DHT22;4484;48.928;10.066;2023-05-07T13:12:34;26.70;69.30
8896;DHT22;4484;48.928;10.066;2023-05-07T13:15:01;26.40;71.80
8896;DHT22;4484;48.928;10.066;2023-05-07T13:17:28;26.40;71.90
8896;DHT22;4484;48.928;10.066;2023-05-07T13:19:57;26.40;71.50
8896;DHT22;4484;48.928;10.066;2023-05-07T13:22:24;26.40;70.00
8896;DHT22;4484;48.928;10.066;2023-05-07T13:24:51;26.00;70.20
8896;DHT22;4484;48.928;10.066;2023-05-07T13:27:18;25.80;70.30
8896;DHT22;4484;48.928;10.066;2023-05-07T13:29:46;25.60;71.20
8896;DHT22;4484;48.928;10.066;2023-05-07T13:32:12;25.00;72.50
8896;DHT22;4484;48.928;10.066;2023-05-07T13:34:39;24.80;74.10
8896;DHT22;4484;48.928;10.066;2023-05-07T13:37:06;24.60;74.50
8896;DHT22;4484;48.928;10.066;2023-05-07T13:39:37;24.30;74.40
8896;DHT22;4484;48.928;10.066;2023-05-07T13:42:04;24.30;77.60
8896;DHT22;4484;48.928;10.066;2023-05-07T13:44:31;24.10;76.10
8896;DHT22;4484;48.928;10.066;2023-05-07T13:46:58;24.10;79.30
8896;DHT22;4484;48.928;10.066;2023-05-07T13:49:24;23.90;79.70
8896;DHT22;4484;48.928;10.066;2023-05-07T13:51:51;23.80;79.30
8896;DHT22;4484;48.928;10.066;2023-05-07T13:54:18;23.70;78.00
8896;DHT22;4484;48.928;10.066;2023-05-07T13:56:45;23.70;80.00
8896;DHT22;4484;48.928;10.066;2023-05-07T13:59:12;23.80;79.70
8896;DHT22;4484;48.928;10.066;2023-05-07T14:01:41;23.80;77.30
8896;DHT22;4484;48.928;10.066;2023-05-07T14:04:07;23.60;77.70
8896;DHT22;4484;48.928;10.066;2023-05-07T14:06:34;23.50;78.10
8896;DHT22;4484;48.928;10.066;2023-05-07T14:09:01;23.40;78.50
8896;DHT22;4484;48.928;10.066;2023-05-07T14:11:28;23.30;79.40
8896;DHT22;4484;48.928;10.066;2023-05-07T14:13:55;23.20;79.80
8896;DHT22;4484;48.928;10.066;2023-05-07T14:16:23;23.20;78.30
8896;DHT22;4484;48.928;10.066;2023-05-07T14:18:50;23.10;78.20
8896;DHT22;4484;48.928;10.066;2023-05-07T14:21:17;23.00;80.00
8896;DHT22;4484;48.928;10.066;2023-05-07T14:23:43;22.90;81.60
8896;DHT22;4484;48.928;10.066;2023-05-07T14:26:10;22.80;80.10
8896;DHT22;4484;48.928;10.066;2023-05-07T14:28:37;22.70;80.80
8896;DHT22;4484;48.928;10.066;2023-05-07T14:31:06;22.60;79.60
8896;DHT22;4484;48.928;10.066;2023-05-07T14:33:33;22.60;83.70
8896;DHT22;4484;48.928;10.066;2023-05-07T14:36:00;22.60;82.80
8896;DHT22;4484;48.928;10.066;2023-05-07T14:38:27;22.50;81.60
8896;DHT22;4484;48.928;10.066;2023-05-07T14:40:53;22.50;82.60
8896;DHT22;4484;48.928;10.066;2023-05-07T14:43:22;22.50;83.90
8896;DHT22;4484;48.928;10.066;2023-05-07T14:45:49;22.60;85.90
8896;DHT22;4484;48.928;10.066;2023-05-07T14:48:16;22.50;83.70
8896;DHT22;4484;48.928;10.066;2023-05-07T14:50:47;22.50;86.60
8896;DHT22;4484;48.928;10.066;2023-05-07T14:53:15;22.50;86.60
8896;DHT22;4484;48.928;10.066;2023-05-07T14:55:42;22.40;88.20
8896;DHT22;4484;48.928;10.066;2023-05-07T14:58:10;22.40;88.50
8896;DHT22;4484;48.928;10.066;2023-05-07T15:00:37;22.30;87.90
8896;DHT22;4484;48.928;10.066;2023-05-07T15:03:08;22.20;89.00
8896;DHT22;4484;48.928;10.066;2023-05-07T15:05:37;22.20;87.90
8896;DHT22;4484;48.928;10.066;2023-05-07T15:08:04;22.10;89.00
8896;DHT22;4484;48.928;10.066;2023-05-07T15:10:34;22.20;88.90
8896;DHT22;4484;48.928;10.066;2023-05-07T15:13:07;22.10;88.50
8896;DHT22;4484;48.928;10.066;2023-05-07T15:15:35;22.00;89.20
8896;DHT22;4484;48.928;10.066;2023-05-07T15:18:02;22.00;89.50
8896;DHT22;4484;48.928;10.066;2023-05-07T15:20:30;21.90;88.90
8896;DHT22;4484;48.928;10.066;2023-05-07T15:22:57;21.90;89.00
8896;DHT22;4484;48.928;10.066;2023-05-07T15:25:24;21.80;90.70
8896;DHT22;4484;48.928;10.066;2023-05-07T15:27:51;21.80;92.10
8896;DHT22;4484;48.928;10.066;2023-05-07T15:30:18;21.90;92.50
8896;DHT22;4484;48.928;10.066;2023-05-07T15:32:46;21.80;92.90
8896;DHT22;4484;48.928;10.066;2023-05-07T15:35:14;21.80;92.90
8896;DHT22;4484;48.928;10.066;2023-05-07T15:37:40;21.80;93.30
8896;DHT22;4484;48.928;10.066;2023-05-07T15:40:08;21.70;92.60
8896;DHT22;4484;48.928;10.066;2023-05-07T15:42:35;21.60;92.70
8896;DHT22;4484;48.928;10.066;2023-05-07T15:45:02;21.60;93.20
8896;DHT22;4484;48.928;10.066;2023-05-07T15:47:32;21.60;93.10
8896;DHT22;4484;48.928;10.066;2023-05-07T15:50:00;21.60;93.00
8896;DHT22;4484;48.928;10.066;2023-05-07T15:52:28;21.50;93.20
8896;DHT22;4484;48.928;10.066;2023-05-07T15:54:55;21.30;93.20
8896;DHT22;4484;48.928;10.066;2023-05-07T15:57:23;21.20;93.60
8896;DHT22;4484;48.928;10.066;2023-05-07T15:59:51;21.10;93.60
8896;DHT22;4484;48.928;10.066;2023-05-07T16:02:18;21.00;93.80
8896;DHT22;4484;48.928;10.066;2023-05-07T16:04:45;20.90;94.20
8896;DHT22;4484;48.928;10.066;2023-05-07T16:07:12;20.90;94.70
8896;DHT22;4484;48.928;10.066;2023-05-07T16:09:38;20.80;95.50